sensor_id;sensor_type;location;lat;lon;timestamp;temperature;humidity
54788;DHT22;59598;48.112;16.280;2023-05-23T00:00:08;14.70;99.90
54788;DHT22;59598;48.112;16.280;2023-05-23T00:02:44;14.70;99.90
54788;DHT22;59598;48.112;16.280;2023-05-23T00:05:17;14.70;99.90
54788;DHT22;59598;48.112;16.280;2023-05-23T00:07:49;14.60;99.90
54788;DHT22;59598;48.112;16.280;2023-05-23T00:10:26;14.50;99.90
54788;DHT22;59598;48.112;16.280;2023-05-23T00:12:59;14.60;99.90
54788;DHT22;59598;48.112;16.280;2023-05-23T00:15:30;14.60;99.90
54788;DHT22;59598;48.112;16.280;2023-05-23T00:18:11;14.60;99.90
54788;DHT22;59598;48.112;16.280;2023-05-23T00:20:44;14.60;99.90
54788;DHT22;59598;48.112;16.280;2023-05-23T00:23:19;14.50;99.90
54788;DHT22;59598;48.112;16.280;2023-05-23T00:25:55;14.50;99.90
54788;DHT22;59598;48.112;16.280;2023-05-23T00:28:28;14.40;99.90
54788;DHT22;59598;48.112;16.280;2023-05-23T00:31:02;14.30;99.90
54788;DHT22;59598;48.112;16.280;2023-05-23T00:33:36;14.30;99.90
54788;DHT22;59598;48.112;16.280;2023-05-23T00:36:10;14.30;99.90
54788;DHT22;59598;48.112;16.280;2023-05-23T00:38:44;14.20;99.90
54788;DHT22;59598;48.112;16.280;2023-05-23T00:41:18;14.20;99.90
54788;DHT22;59598;48.112;16.280;2023-05-23T00:43:52;14.20;99.90
54788;DHT22;59598;48.112;16.280;2023-05-23T00:46:26;14.20;99.90
54788;DHT22;59598;48.112;16.280;2023-05-23T00:49:03;14.30;99.90
54788;DHT22;59598;48.112;16.280;2023-05-23T00:51:38;14.20;99.90
54788;DHT22;59598;48.112;16.280;2023-05-23T00:54:09;14.20;99.90
54788;DHT22;59598;48.112;16.280;2023-05-23T00:56:48;14.10;99.90
54788;DHT22;59598;48.112;16.280;2023-05-23T00:59:23;14.10;99.90
54788;DHT22;59598;48.112;16.280;2023-05-23T01:01:56;14.00;99.90
54788;DHT22;59598;48.112;16.280;2023-05-23T01:04:31;13.90;99.90
54788;DHT22;59598;48.112;16.280;2023-05-23T01:07:06;13.90;99.90
54788;DHT22;59598;48.112;16.280;2023-05-23T01:09:38;13.80;99.90
54788;DHT22;59598;48.112;16.280;2023-05-23T01:12:22;13.80;99.90
54788;DHT22;59598;48.112;16.280;2023-05-23T01:18:01;13.80;99.90
54788;DHT22;59598;48.112;16.280;2023-05-23T01:29:19;13.80;99.90
54788;DHT22;59598;48.112;16.280;2023-05-23T01:31:54;13.70;99.90
54788;DHT22;59598;48.112;16.280;2023-05-23T01:34:28;13.60;99.90
54788;DHT22;59598;48.112;16.280;2023-05-23T01:37:00;13.50;99.90
54788;DHT22;59598;48.112;16.280;2023-05-23T01:39:35;13.50;99.90
54788;DHT22;59598;48.112;16.280;2023-05-23T01:42:09;13.40;99.90
54788;DHT22;59598;48.112;16.280;2023-05-23T01:44:47;13.40;99.90
54788;DHT22;59598;48.112;16.280;2023-05-23T01:47:21;13.40;99.90
54788;DHT22;59598;48.112;16.280;2023-05-23T01:49:53;13.40;99.90
54788;DHT22;59598;48.112;16.280;2023-05-23T01:52:27;13.40;99.90
54788;DHT22;59598;48.112;16.280;2023-05-23T01:54:59;13.40;99.90
54788;DHT22;59598;48.112;16.280;2023-05-23T01:57:35;13.50;99.90
54788;DHT22;59598;48.112;16.280;2023-05-23T02:00:07;13.40;99.90
54788;DHT22;59598;48.112;16.280;2023-05-23T02:02:42;13.40;99.90
54788;DHT22;59598;48.112;16.280;2023-05-23T02:05:15;13.30;99.90
54788;DHT22;59598;48.112;16.280;2023-05-23T02:07:49;13.30;99.90
54788;DHT22;59598;48.112;16.280;2023-05-23T02:10:21;13.30;99.90
54788;DHT22;59598;48.112;16.280;2023-05-23T02:12:56;13.30;99.90
54788;DHT22;59598;48.112;16.280;2023-05-23T02:15:28;13.30;99.90
54788;DHT22;59598;48.112;16.280;2023-05-23T02:18:00;13.40;99.90
54788;DHT22;59598;48.112;16.280;2023-05-23T02:20:36;13.30;99.90
54788;DHT22;59598;48.112;16.280;2023-05-23T02:23:07;13.30;99.90
54788;DHT22;59598;48.112;16.280;2023-05-23T02:25:38;13.30;99.90
54788;DHT22;59598;48.112;16.280;2023-05-23T02:28:15;13.30;99.90
54788;DHT22;59598;48.112;16.280;2023-05-23T02:30:49;13.30;99.90
54788;DHT22;59598;48.112;16.280;2023-05-23T02:33:20;13.40;99.90
54788;DHT22;59598;48.112;16.280;2023-05-23T02:35:51;13.30;99.90
54788;DHT22;59598;48.112;16.280;2023-05-23T02:38:25;13.30;99.90
54788;DHT22;59598;48.112;16.280;2023-05-23T02:40:57;13.30;99.90
54788;DHT22;59598;48.112;16.280;2023-05-23T02:43:31;13.30;99.90
54788;DHT22;59598;48.112;16.280;2023-05-23T02:46:02;13.30;99.90
54788;DHT22;59598;48.112;16.280;2023-05-23T02:48:36;13.20;99.90
54788;DHT22;59598;48.112;16.280;2023-05-23T02:51:08;13.10;99.90
54788;DHT22;59598;48.112;16.280;2023-05-23T02:53:39;13.00;99.90
54788;DHT22;59598;48.112;16.280;2023-05-23T02:56:19;13.00;99.90
54788;DHT22;59598;48.112;16.280;2023-05-23T02:58:52;12.90;99.90
54788;DHT22;59598;48.112;16.280;2023-05-23T03:01:23;12.90;99.90
54788;DHT22;59598;48.112;16.280;2023-05-23T03:03:56;12.80;99.90
54788;DHT22;59598;48.112;16.280;2023-05-23T03:06:27;12.90;99.90
54788;DHT22;59598;48.112;16.280;2023-05-23T03:08:59;12.80;99.90
54788;DHT22;59598;48.112;16.280;2023-05-23T03:11:31;12.80;99.90
54788;DHT22;59598;48.112;16.280;2023-05-23T03:14:04;12.80;99.90
54788;DHT22;59598;48.112;16.280;2023-05-23T03:16:36;12.80;99.90
54788;DHT22;59598;48.112;16.280;2023-05-23T03:19:10;12.80;99.90
54788;DHT22;59598;48.112;16.280;2023-05-23T03:21:41;12.80;99.90
54788;DHT22;59598;48.112;16.280;2023-05-23T03:24:14;12.80;99.90
54788;DHT22;59598;48.112;16.280;2023-05-23T03:26:45;12.90;99.90
54788;DHT22;59598;48.112;16.280;2023-05-23T03:29:17;13.00;99.90
54788;DHT22;59598;48.112;16.280;2023-05-23T03:31:51;13.00;99.90
54788;DHT22;59598;48.112;16.280;2023-05-23T03:34:26;13.00;99.90
54788;DHT22;59598;48.112;16.280;2023-05-23T03:37:03;13.10;99.90
54788;DHT22;59598;48.112;16.280;2023-05-23T03:39:34;13.10;99.90
54788;DHT22;59598;48.112;16.280;2023-05-23T03:42:06;13.10;99.90
54788;DHT22;59598;48.112;16.280;2023-05-23T03:44:38;13.10;99.90
54788;DHT22;59598;48.112;16.280;2023-05-23T03:47:09;13.20;99.90
54788;DHT22;59598;48.112;16.280;2023-05-23T03:49:40;13.20;99.90
54788;DHT22;59598;48.112;16.280;2023-05-23T03:52:14;13.20;99.90
54788;DHT22;59598;48.112;16.280;2023-05-23T03:54:49;13.20;99.90
54788;DHT22;59598;48.112;16.280;2023-05-23T03:57:22;13.40;99.90
54788;DHT22;59598;48.112;16.280;2023-05-23T03:59:53;13.40;99.90
54788;DHT22;59598;48.112;16.280;2023-05-23T04:02:27;13.60;99.90
54788;DHT22;59598;48.112;16.280;2023-05-23T04:04:58;13.60;99.90
54788;DHT22;59598;48.112;16.280;2023-05-23T04:07:30;13.60;99.90
54788;DHT22;59598;48.112;16.280;2023-05-23T04:10:04;13.70;99.90
54788;DHT22;59598;48.112;16.280;2023-05-23T04:12:36;13.70;99.90
54788;DHT22;59598;48.112;16.280;2023-05-23T04:15:13;13.80;99.90
54788;DHT22;59598;48.112;16.280;2023-05-23T04:17:45;13.90;99.90
54788;DHT22;59598;48.112;16.280;2023-05-23T04:20:16;14.00;99.90
54788;DHT22;59598;48.112;16.280;2023-05-23T04:22:47;14.30;99.90
54788;DHT22;59598;48.112;16.280;2023-05-23T04:25:26;14.50;99.90
54788;DHT22;59598;48.112;16.280;2023-05-23T04:28:00;14.80;99.90
54788;DHT22;59598;48.112;16.280;2023-05-23T04:30:34;15.20;99.90
54788;DHT22;59598;48.112;16.280;2023-05-23T04:33:08;15.50;99.90
54788;DHT22;59598;48.112;16.280;2023-05-23T04:35:43;16.00;99.90
54788;DHT22;59598;48.112;16.280;2023-05-23T04:38:17;16.20;1.00
54788;DHT22;59598;48.112;16.280;2023-05-23T04:40:49;16.40;1.00
54788;DHT22;59598;48.112;16.280;2023-05-23T04:43:24;17.00;1.00
54788;DHT22;59598;48.112;16.280;2023-05-23T04:45:57;17.30;1.00
54788;DHT22;59598;48.112;16.280;2023-05-23T04:48:29;17.60;1.00
54788;DHT22;59598;48.112;16.280;2023-05-23T04:51:04;17.90;1.00
54788;DHT22;59598;48.112;16.280;2023-05-23T04:53:43;18.00;1.00
54788;DHT22;59598;48.112;16.280;2023-05-23T04:56:17;18.20;1.00
54788;DHT22;59598;48.112;16.280;2023-05-23T04:58:53;18.50;1.00
54788;DHT22;59598;48.112;16.280;2023-05-23T05:01:27;18.90;99.90
54788;DHT22;59598;48.112;16.280;2023-05-23T05:04:03;19.20;99.90
54788;DHT22;59598;48.112;16.280;2023-05-23T05:06:34;19.50;99.90
54788;DHT22;59598;48.112;16.280;2023-05-23T05:09:05;19.70;99.90
54788;DHT22;59598;48.112;16.280;2023-05-23T05:11:39;19.80;82.20
54788;DHT22;59598;48.112;16.280;2023-05-23T05:14:10;20.00;90.00
54788;DHT22;59598;48.112;16.280;2023-05-23T05:16:42;20.10;71.40
54788;DHT22;59598;48.112;16.280;2023-05-23T05:19:16;20.30;99.90
54788;DHT22;59598;48.112;16.280;2023-05-23T05:21:48;20.50;18.70
54788;DHT22;59598;48.112;16.280;2023-05-23T05:24:19;20.60;21.60
54788;DHT22;59598;48.112;16.280;2023-05-23T05:26:54;20.60;1.00
54788;DHT22;59598;48.112;16.280;2023-05-23T05:29:26;20.80;99.90
54788;DHT22;59598;48.112;16.280;2023-05-23T05:31:59;21.10;1.00
54788;DHT22;59598;48.112;16.280;2023-05-23T05:34:31;21.40;1.00
54788;DHT22;59598;48.112;16.280;2023-05-23T05:37:03;21.60;99.90
54788;DHT22;59598;48.112;16.280;2023-05-23T05:39:36;21.90;99.90
54788;DHT22;59598;48.112;16.280;2023-05-23T05:42:09;22.20;63.40
54788;DHT22;59598;48.112;16.280;2023-05-23T05:44:41;22.50;99.90
54788;DHT22;59598;48.112;16.280;2023-05-23T05:47:15;22.60;1.00
54788;DHT22;59598;48.112;16.280;2023-05-23T05:49:46;22.80;94.40
54788;DHT22;59598;48.112;16.280;2023-05-23T05:52:17;22.90;1.00
54788;DHT22;59598;48.112;16.280;2023-05-23T05:54:49;23.00;1.00
54788;DHT22;59598;48.112;16.280;2023-05-23T05:57:23;22.80;1.00
54788;DHT22;59598;48.112;16.280;2023-05-23T05:59:57;22.60;99.90
54788;DHT22;59598;48.112;16.280;2023-05-23T06:02:28;22.80;1.00
54788;DHT22;59598;48.112;16.280;2023-05-23T06:04:59;23.00;99.90
54788;DHT22;59598;48.112;16.280;2023-05-23T06:07:38;23.20;78.30
54788;DHT22;59598;48.112;16.280;2023-05-23T06:10:10;23.30;99.90
54788;DHT22;59598;48.112;16.280;2023-05-23T06:12:44;23.50;99.90
54788;DHT22;59598;48.112;16.280;2023-05-23T06:15:19;23.80;1.00
54788;DHT22;59598;48.112;16.280;2023-05-23T06:17:53;24.10;1.00
54788;DHT22;59598;48.112;16.280;2023-05-23T06:20:25;24.40;99.90
54788;DHT22;59598;48.112;16.280;2023-05-23T06:22:56;24.80;99.90
54788;DHT22;59598;48.112;16.280;2023-05-23T06:25:31;24.90;99.90
54788;DHT22;59598;48.112;16.280;2023-05-23T06:28:03;25.10;21.10
54788;DHT22;59598;48.112;16.280;2023-05-23T06:30:36;25.30;1.00
54788;DHT22;59598;48.112;16.280;2023-05-23T06:33:08;25.60;1.00
54788;DHT22;59598;48.112;16.280;2023-05-23T06:35:40;25.70;99.90
54788;DHT22;59598;48.112;16.280;2023-05-23T06:38:11;26.00;99.90
54788;DHT22;59598;48.112;16.280;2023-05-23T06:40:46;26.20;1.00
54788;DHT22;59598;48.112;16.280;2023-05-23T06:43:20;25.70;99.90
54788;DHT22;59598;48.112;16.280;2023-05-23T06:45:52;26.20;1.00
54788;DHT22;59598;48.112;16.280;2023-05-23T06:48:23;26.20;1.00
54788;DHT22;59598;48.112;16.280;2023-05-23T06:50:55;26.30;99.90
54788;DHT22;59598;48.112;16.280;2023-05-23T06:53:27;26.20;1.00
54788;DHT22;59598;48.112;16.280;2023-05-23T06:55:58;26.50;99.90
54788;DHT22;59598;48.112;16.280;2023-05-23T06:58:29;26.40;99.90
54788;DHT22;59598;48.112;16.280;2023-05-23T07:01:00;25.10;99.90
54788;DHT22;59598;48.112;16.280;2023-05-23T07:03:32;24.70;99.90
54788;DHT22;59598;48.112;16.280;2023-05-23T07:06:10;25.20;1.00
54788;DHT22;59598;48.112;16.280;2023-05-23T07:08:43;25.50;1.00
54788;DHT22;59598;48.112;16.280;2023-05-23T07:11:22;25.60;1.00
54788;DHT22;59598;48.112;16.280;2023-05-23T07:13:53;25.90;1.00
54788;DHT22;59598;48.112;16.280;2023-05-23T07:16:29;26.40;1.00
54788;DHT22;59598;48.112;16.280;2023-05-23T07:19:01;26.70;1.00
54788;DHT22;59598;48.112;16.280;2023-05-23T07:21:35;27.10;99.90
54788;DHT22;59598;48.112;16.280;2023-05-23T07:24:06;27.50;99.90
54788;DHT22;59598;48.112;16.280;2023-05-23T07:26:39;27.80;99.90
54788;DHT22;59598;48.112;16.280;2023-05-23T07:29:11;27.90;1.00
54788;DHT22;59598;48.112;16.280;2023-05-23T07:31:44;28.20;15.00
54788;DHT22;59598;48.112;16.280;2023-05-23T07:34:18;28.50;1.00
54788;DHT22;59598;48.112;16.280;2023-05-23T07:36:49;28.30;1.00
54788;DHT22;59598;48.112;16.280;2023-05-23T07:39:20;28.10;1.00
54788;DHT22;59598;48.112;16.280;2023-05-23T07:41:54;28.00;1.00
54788;DHT22;59598;48.112;16.280;2023-05-23T07:44:27;28.00;1.00
54788;DHT22;59598;48.112;16.280;2023-05-23T07:46:59;28.20;1.00
54788;DHT22;59598;48.112;16.280;2023-05-23T07:49:30;27.90;1.00
54788;DHT22;59598;48.112;16.280;2023-05-23T07:52:02;27.80;1.00
54788;DHT22;59598;48.112;16.280;2023-05-23T07:54:33;27.80;1.00
54788;DHT22;59598;48.112;16.280;2023-05-23T07:57:04;27.40;1.00
54788;DHT22;59598;48.112;16.280;2023-05-23T07:59:37;27.50;1.00
54788;DHT22;59598;48.112;16.280;2023-05-23T08:02:08;27.90;1.00
54788;DHT22;59598;48.112;16.280;2023-05-23T08:04:42;27.80;1.00
54788;DHT22;59598;48.112;16.280;2023-05-23T08:07:18;28.00;1.00
54788;DHT22;59598;48.112;16.280;2023-05-23T08:09:54;28.20;1.00
54788;DHT22;59598;48.112;16.280;2023-05-23T08:12:28;28.20;1.00
54788;DHT22;59598;48.112;16.280;2023-05-23T08:14:59;28.50;1.00
54788;DHT22;59598;48.112;16.280;2023-05-23T08:17:30;28.90;1.00
54788;DHT22;59598;48.112;16.280;2023-05-23T08:20:02;29.00;1.00
54788;DHT22;59598;48.112;16.280;2023-05-23T08:22:39;29.30;1.00
54788;DHT22;59598;48.112;16.280;2023-05-23T08:25:11;29.40;1.00
54788;DHT22;59598;48.112;16.280;2023-05-23T08:27:45;29.00;1.00
54788;DHT22;59598;48.112;16.280;2023-05-23T08:30:18;29.00;1.00
54788;DHT22;59598;48.112;16.280;2023-05-23T08:32:56;29.70;1.00
54788;DHT22;59598;48.112;16.280;2023-05-23T08:35:27;30.30;1.00
54788;DHT22;59598;48.112;16.280;2023-05-23T08:38:05;30.50;1.00
54788;DHT22;59598;48.112;16.280;2023-05-23T08:40:40;30.60;1.00
54788;DHT22;59598;48.112;16.280;2023-05-23T08:43:18;30.80;99.90
54788;DHT22;59598;48.112;16.280;2023-05-23T08:45:49;30.70;99.90
54788;DHT22;59598;48.112;16.280;2023-05-23T08:48:27;30.70;99.90
54788;DHT22;59598;48.112;16.280;2023-05-23T08:51:01;30.70;99.90
54788;DHT22;59598;48.112;16.280;2023-05-23T08:53:35;31.30;99.90
54788;DHT22;59598;48.112;16.280;2023-05-23T08:56:08;31.50;99.90
54788;DHT22;59598;48.112;16.280;2023-05-23T08:58:41;31.60;99.90
54788;DHT22;59598;48.112;16.280;2023-05-23T09:01:15;31.30;99.90
54788;DHT22;59598;48.112;16.280;2023-05-23T09:03:50;31.10;99.90
54788;DHT22;59598;48.112;16.280;2023-05-23T09:06:26;31.40;99.90
54788;DHT22;59598;48.112;16.280;2023-05-23T09:09:00;31.70;99.90
54788;DHT22;59598;48.112;16.280;2023-05-23T09:11:31;32.20;99.90
54788;DHT22;59598;48.112;16.280;2023-05-23T09:14:04;31.90;99.90
54788;DHT22;59598;48.112;16.280;2023-05-23T09:16:37;31.30;99.90
54788;DHT22;59598;48.112;16.280;2023-05-23T09:19:10;31.20;99.90
54788;DHT22;59598;48.112;16.280;2023-05-23T09:21:45;31.60;99.90
54788;DHT22;59598;48.112;16.280;2023-05-23T09:24:18;31.30;99.90
54788;DHT22;59598;48.112;16.280;2023-05-23T09:26:49;31.20;99.90
54788;DHT22;59598;48.112;16.280;2023-05-23T09:29:20;31.50;99.90
54788;DHT22;59598;48.112;16.280;2023-05-23T09:31:52;31.90;99.90
54788;DHT22;59598;48.112;16.280;2023-05-23T09:34:29;31.80;64.30
54788;DHT22;59598;48.112;16.280;2023-05-23T09:37:06;31.90;85.90
54788;DHT22;59598;48.112;16.280;2023-05-23T09:39:38;32.20;1.00
54788;DHT22;59598;48.112;16.280;2023-05-23T09:42:09;32.70;47.40
54788;DHT22;59598;48.112;16.280;2023-05-23T09:44:41;32.60;1.00
54788;DHT22;59598;48.112;16.280;2023-05-23T09:47:15;33.00;20.80
54788;DHT22;59598;48.112;16.280;2023-05-23T09:49:46;33.50;1.00
54788;DHT22;59598;48.112;16.280;2023-05-23T09:52:20;32.60;1.00
54788;DHT22;59598;48.112;16.280;2023-05-23T09:54:52;32.80;1.00
54788;DHT22;59598;48.112;16.280;2023-05-23T09:57:24;32.00;1.00
54788;DHT22;59598;48.112;16.280;2023-05-23T09:59:58;31.60;1.00
54788;DHT22;59598;48.112;16.280;2023-05-23T10:05:33;31.80;1.00
54788;DHT22;59598;48.112;16.280;2023-05-23T10:13:48;31.90;1.00
54788;DHT22;59598;48.112;16.280;2023-05-23T10:19:23;32.70;1.00
54788;DHT22;59598;48.112;16.280;2023-05-23T10:22:06;32.00;1.00
54788;DHT22;59598;48.112;16.280;2023-05-23T10:24:39;30.70;1.00
54788;DHT22;59598;48.112;16.280;2023-05-23T10:27:11;31.40;1.00
54788;DHT22;59598;48.112;16.280;2023-05-23T10:29:46;30.60;1.00
54788;DHT22;59598;48.112;16.280;2023-05-23T10:32:18;30.20;1.00
54788;DHT22;59598;48.112;16.280;2023-05-23T10:34:58;30.50;1.00
54788;DHT22;59598;48.112;16.280;2023-05-23T10:37:39;31.30;1.00
54788;DHT22;59598;48.112;16.280;2023-05-23T10:40:30;30.80;1.00
54788;DHT22;59598;48.112;16.280;2023-05-23T10:45:46;31.30;1.00
54788;DHT22;59598;48.112;16.280;2023-05-23T10:48:40;31.30;1.00
54788;DHT22;59598;48.112;16.280;2023-05-23T10:51:15;30.80;1.00
54788;DHT22;59598;48.112;16.280;2023-05-23T10:53:53;29.90;1.00
54788;DHT22;59598;48.112;16.280;2023-05-23T10:56:30;31.00;1.00
54788;DHT22;59598;48.112;16.280;2023-05-23T10:59:04;31.80;1.00
54788;DHT22;59598;48.112;16.280;2023-05-23T11:01:40;31.60;1.00
54788;DHT22;59598;48.112;16.280;2023-05-23T11:04:12;32.10;1.00
54788;DHT22;59598;48.112;16.280;2023-05-23T11:06:44;31.80;1.00
54788;DHT22;59598;48.112;16.280;2023-05-23T11:09:18;32.20;1.00
54788;DHT22;59598;48.112;16.280;2023-05-23T11:12:01;31.70;1.00
54788;DHT22;59598;48.112;16.280;2023-05-23T11:17:18;32.00;1.00
54788;DHT22;59598;48.112;16.280;2023-05-23T11:20:01;31.00;1.00
54788;DHT22;59598;48.112;16.280;2023-05-23T11:22:35;31.30;1.00
54788;DHT22;59598;48.112;16.280;2023-05-23T11:25:08;31.40;1.00
54788;DHT22;59598;48.112;16.280;2023-05-23T11:27:45;31.30;1.00
54788;DHT22;59598;48.112;16.280;2023-05-23T11:30:17;32.00;1.00
54788;DHT22;59598;48.112;16.280;2023-05-23T11:32:52;32.00;1.00
54788;DHT22;59598;48.112;16.280;2023-05-23T11:35:30;31.80;1.00
54788;DHT22;59598;48.112;16.280;2023-05-23T11:38:03;31.40;1.00
54788;DHT22;59598;48.112;16.280;2023-05-23T11:40:39;30.80;1.00
54788;DHT22;59598;48.112;16.280;2023-05-23T11:43:17;30.20;1.00
54788;DHT22;59598;48.112;16.280;2023-05-23T11:45:56;30.30;1.00
54788;DHT22;59598;48.112;16.280;2023-05-23T11:48:29;29.60;1.00
54788;DHT22;59598;48.112;16.280;2023-05-23T11:51:05;30.00;1.00
54788;DHT22;59598;48.112;16.280;2023-05-23T11:53:36;29.60;1.00
54788;DHT22;59598;48.112;16.280;2023-05-23T11:56:08;29.40;1.00
54788;DHT22;59598;48.112;16.280;2023-05-23T11:58:40;30.30;1.00
54788;DHT22;59598;48.112;16.280;2023-05-23T12:01:15;30.70;1.00
54788;DHT22;59598;48.112;16.280;2023-05-23T12:03:49;31.30;1.00
54788;DHT22;59598;48.112;16.280;2023-05-23T12:06:24;31.90;1.00
54788;DHT22;59598;48.112;16.280;2023-05-23T12:08:58;32.00;1.00
54788;DHT22;59598;48.112;16.280;2023-05-23T12:11:36;31.90;1.00
54788;DHT22;59598;48.112;16.280;2023-05-23T12:14:08;32.90;1.00
54788;DHT22;59598;48.112;16.280;2023-05-23T12:16:43;34.50;1.00
54788;DHT22;59598;48.112;16.280;2023-05-23T12:19:18;37.00;1.00
54788;DHT22;59598;48.112;16.280;2023-05-23T12:21:49;37.30;1.00
54788;DHT22;59598;48.112;16.280;2023-05-23T12:24:23;37.20;1.00
54788;DHT22;59598;48.112;16.280;2023-05-23T12:26:59;36.80;1.00
54788;DHT22;59598;48.112;16.280;2023-05-23T12:29:35;36.30;1.00
54788;DHT22;59598;48.112;16.280;2023-05-23T12:32:08;35.90;1.00
54788;DHT22;59598;48.112;16.280;2023-05-23T12:34:43;35.80;1.00
54788;DHT22;59598;48.112;16.280;2023-05-23T12:37:15;35.50;1.00
54788;DHT22;59598;48.112;16.280;2023-05-23T12:39:49;35.60;1.00
54788;DHT22;59598;48.112;16.280;2023-05-23T12:42:27;37.00;1.00
54788;DHT22;59598;48.112;16.280;2023-05-23T12:44:59;37.80;1.00
54788;DHT22;59598;48.112;16.280;2023-05-23T12:47:30;36.90;1.00
54788;DHT22;59598;48.112;16.280;2023-05-23T12:50:01;36.80;1.00
54788;DHT22;59598;48.112;16.280;2023-05-23T12:52:36;35.40;1.00
54788;DHT22;59598;48.112;16.280;2023-05-23T12:55:10;33.60;1.00
54788;DHT22;59598;48.112;16.280;2023-05-23T12:57:45;32.60;1.00
54788;DHT22;59598;48.112;16.280;2023-05-23T13:00:16;32.00;1.00
54788;DHT22;59598;48.112;16.280;2023-05-23T13:02:49;31.60;1.00
54788;DHT22;59598;48.112;16.280;2023-05-23T13:05:22;31.20;1.00
54788;DHT22;59598;48.112;16.280;2023-05-23T13:07:54;31.10;1.00
54788;DHT22;59598;48.112;16.280;2023-05-23T13:10:27;31.10;1.00
54788;DHT22;59598;48.112;16.280;2023-05-23T13:12:59;30.40;1.00
54788;DHT22;59598;48.112;16.280;2023-05-23T13:15:30;30.10;1.00
54788;DHT22;59598;48.112;16.280;2023-05-23T13:18:02;31.10;1.00
54788;DHT22;59598;48.112;16.280;2023-05-23T13:20:34;32.00;1.00
54788;DHT22;59598;48.112;16.280;2023-05-23T13:23:06;32.00;1.00
54788;DHT22;59598;48.112;16.280;2023-05-23T13:25:38;31.00;1.00
54788;DHT22;59598;48.112;16.280;2023-05-23T13:28:09;31.20;1.00
54788;DHT22;59598;48.112;16.280;2023-05-23T13:30:43;31.30;1.00
54788;DHT22;59598;48.112;16.280;2023-05-23T13:33:14;31.20;1.00
54788;DHT22;59598;48.112;16.280;2023-05-23T13:35:46;30.50;1.00
54788;DHT22;59598;48.112;16.280;2023-05-23T13:38:22;30.30;1.00
54788;DHT22;59598;48.112;16.280;2023-05-23T13:40:53;29.70;1.00
54788;DHT22;59598;48.112;16.280;2023-05-23T13:43:25;29.20;1.00
54788;DHT22;59598;48.112;16.280;2023-05-23T13:45:58;28.10;1.00
54788;DHT22;59598;48.112;16.280;2023-05-23T13:48:31;27.70;1.00
54788;DHT22;59598;48.112;16.280;2023-05-23T13:51:03;27.10;1.00
54788;DHT22;59598;48.112;16.280;2023-05-23T13:53:35;27.10;1.00
54788;DHT22;59598;48.112;16.280;2023-05-23T13:56:06;27.00;1.00
54788;DHT22;59598;48.112;16.280;2023-05-23T13:58:37;26.70;1.00
54788;DHT22;59598;48.112;16.280;2023-05-23T14:01:08;26.70;1.00
54788;DHT22;59598;48.112;16.280;2023-05-23T14:03:40;26.60;1.00
54788;DHT22;59598;48.112;16.280;2023-05-23T14:06:14;26.50;1.00
54788;DHT22;59598;48.112;16.280;2023-05-23T14:08:45;26.30;1.00
54788;DHT22;59598;48.112;16.280;2023-05-23T14:11:16;25.70;1.00
54788;DHT22;59598;48.112;16.280;2023-05-23T14:13:48;25.50;27.70
54788;DHT22;59598;48.112;16.280;2023-05-23T14:16:21;25.50;99.90
54788;DHT22;59598;48.112;16.280;2023-05-23T14:18:52;25.30;99.90
54788;DHT22;59598;48.112;16.280;2023-05-23T14:21:29;25.00;99.90
54788;DHT22;59598;48.112;16.280;2023-05-23T14:24:03;23.90;1.00
54788;DHT22;59598;48.112;16.280;2023-05-23T14:26:34;23.10;99.90
54788;DHT22;59598;48.112;16.280;2023-05-23T14:29:06;22.70;99.90
54788;DHT22;59598;48.112;16.280;2023-05-23T14:31:40;22.20;99.90
54788;DHT22;59598;48.112;16.280;2023-05-23T14:34:14;21.40;99.90
54788;DHT22;59598;48.112;16.280;2023-05-23T14:36:45;20.60;1.00
54788;DHT22;59598;48.112;16.280;2023-05-23T14:39:19;20.00;1.00
54788;DHT22;59598;48.112;16.280;2023-05-23T14:41:53;19.50;1.00
54788;DHT22;59598;48.112;16.280;2023-05-23T14:44:25;19.30;1.00
54788;DHT22;59598;48.112;16.280;2023-05-23T14:47:04;19.10;1.00
54788;DHT22;59598;48.112;16.280;2023-05-23T14:49:41;18.90;78.70
54788;DHT22;59598;48.112;16.280;2023-05-23T14:52:15;18.60;99.90
54788;DHT22;59598;48.112;16.280;2023-05-23T14:54:53;18.40;99.90
54788;DHT22;59598;48.112;16.280;2023-05-23T14:57:27;18.40;99.90
54788;DHT22;59598;48.112;16.280;2023-05-23T14:59:58;18.40;99.90
54788;DHT22;59598;48.112;16.280;2023-05-23T15:02:30;18.40;99.90
54788;DHT22;59598;48.112;16.280;2023-05-23T15:05:03;18.50;41.40
54788;DHT22;59598;48.112;16.280;2023-05-23T15:07:36;18.50;97.50
54788;DHT22;59598;48.112;16.280;2023-05-23T15:10:08;18.30;99.90
54788;DHT22;59598;48.112;16.280;2023-05-23T15:12:42;17.80;99.90
54788;DHT22;59598;48.112;16.280;2023-05-23T15:15:16;17.50;99.90
54788;DHT22;59598;48.112;16.280;2023-05-23T15:17:53;17.30;99.90
54788;DHT22;59598;48.112;16.280;2023-05-23T15:20:26;17.10;99.90
54788;DHT22;59598;48.112;16.280;2023-05-23T15:22:58;17.00;99.90
54788;DHT22;59598;48.112;16.280;2023-05-23T15:25:29;16.80;99.90
54788;DHT22;59598;48.112;16.280;2023-05-23T15:28:08;16.80;99.90
54788;DHT22;59598;48.112;16.280;2023-05-23T15:30:39;16.70;99.90
54788;DHT22;59598;48.112;16.280;2023-05-23T15:33:10;16.70;99.90
54788;DHT22;59598;48.112;16.280;2023-05-23T15:35:42;16.70;99.90
54788;DHT22;59598;48.112;16.280;2023-05-23T15:38:19;16.60;99.90
54788;DHT22;59598;48.112;16.280;2023-05-23T15:40:53;16.60;99.90
54788;DHT22;59598;48.112;16.280;2023-05-23T15:43:29;16.50;99.90
54788;DHT22;59598;48.112;16.280;2023-05-23T15:46:03;16.50;99.90
54788;DHT22;59598;48.112;16.280;2023-05-23T15:48:35;16.40;99.90
54788;DHT22;59598;48.112;16.280;2023-05-23T15:51:07;16.40;99.90
54788;DHT22;59598;48.112;16.280;2023-05-23T15:53:39;16.40;99.90
54788;DHT22;59598;48.112;16.280;2023-05-23T15:56:13;16.30;99.90
54788;DHT22;59598;48.112;16.280;2023-05-23T15:58:46;16.30;99.90
54788;DHT22;59598;48.112;16.280;2023-05-23T16:01:17;16.30;99.90
54788;DHT22;59598;48.112;16.280;2023-05-23T16:03:48;16.30;99.90
54788;DHT22;59598;48.112;16.280;2023-05-23T16:06:20;16.40;99.90
54788;DHT22;59598;48.112;16.280;2023-05-23T16:08:55;16.40;99.90
54788;DHT22;59598;48.112;16.280;2023-05-23T16:11:29;16.40;99.90
54788;DHT22;59598;48.112;16.280;2023-05-23T16:14:00;16.40;99.90
54788;DHT22;59598;48.112;16.280;2023-05-23T16:16:34;16.40;99.90
54788;DHT22;59598;48.112;16.280;2023-05-23T16:19:06;16.30;99.90
54788;DHT22;59598;48.112;16.280;2023-05-23T16:21:40;16.50;99.90
54788;DHT22;59598;48.112;16.280;2023-05-23T16:24:16;16.60;99.90
54788;DHT22;59598;48.112;16.280;2023-05-23T16:26:49;16.70;99.90
54788;DHT22;59598;48.112;16.280;2023-05-23T16:29:20;16.80;99.90